createdAt,value
2022-08-14T00:02:03.225Z,100129.06
2022-08-14T00:04:36.098Z,100132.59
2022-08-14T00:07:14.072Z,100128.28
2022-08-14T00:10:02.202Z,100125.28
2022-08-14T00:12:37.805Z,100119.00
2022-08-14T00:15:37.469Z,100125.56
2022-08-14T00:18:14.584Z,100125.56
2022-08-14T00:20:43.390Z,100130.69
2022-08-14T00:23:16.904Z,100126.09
2022-08-14T00:25:53.858Z,100128.78
2022-08-14T00:28:34.999Z,100134.22
2022-08-14T00:31:04.606Z,100130.94
2022-08-14T00:33:50.494Z,100136.94
2022-08-14T00:36:35.580Z,100127.69
2022-08-14T00:39:09.513Z,100138.00
2022-08-14T00:41:38.783Z,100135.84
2022-08-14T00:44:06.198Z,100124.16
2022-08-14T00:46:33.531Z,100129.88
2022-08-14T00:49:02.059Z,100116.28
2022-08-14T00:51:37.667Z,100114.66
2022-08-14T00:54:17.065Z,100123.62
2022-08-14T00:56:55.255Z,100116.28
2022-08-14T00:59:25.115Z,100113.31
2022-08-14T01:01:55.913Z,100114.91
2022-08-14T01:04:38.432Z,100117.91
2022-08-14T01:07:11.191Z,100111.66
2022-08-14T01:09:41.463Z,100116.28
2022-08-14T01:12:09.342Z,100110.03
2022-08-14T01:14:37.667Z,100093.19
2022-08-14T01:17:08.981Z,100110.56
2022-08-14T01:19:54.796Z,100111.37
2022-08-14T01:22:21.870Z,100111.66
2022-08-14T01:24:54.066Z,100096.66
2022-08-14T01:27:24.149Z,100113.53
2022-08-14T01:30:01.460Z,100114.63
2022-08-14T01:32:35.643Z,100120.84
2022-08-14T01:35:21.220Z,100112.97
2022-08-14T01:37:57.667Z,100119.47
2022-08-14T01:40:36.295Z,100115.09
2022-08-14T01:43:14.589Z,100121.13
2022-08-14T01:45:42.158Z,100124.66
2022-08-14T01:48:13.304Z,100122.19
2022-08-14T01:50:42.656Z,100117.03
2022-08-14T01:53:11.465Z,100122.44
2022-08-14T01:55:40.538Z,100118.66
2022-08-14T01:58:19.746Z,100115.13
2022-08-14T02:00:54.978Z,100108.03
2022-08-14T02:03:31.243Z,100119.47
2022-08-14T02:06:03.794Z,100121.13
2022-08-14T02:08:53.014Z,100110.75
2022-08-14T02:11:24.422Z,100116.22
2022-08-14T02:13:56.658Z,100122.72
2022-08-14T02:16:26.354Z,100118.94
2022-08-14T02:18:56.475Z,100118.63
2022-08-14T02:21:26.926Z,100122.44
2022-08-14T02:23:55.572Z,100121.66
2022-08-14T02:26:29.669Z,100110.47
2022-08-14T02:29:03.453Z,100111.84
2022-08-14T02:31:41.882Z,100123.78
2022-08-14T02:34:22.053Z,100115.91
2022-08-14T02:37:04.831Z,100121.59
2022-08-14T02:39:45.903Z,100107.47
2022-08-14T02:42:15.440Z,100109.62
2022-08-14T02:44:50.498Z,100123.22
2022-08-14T02:47:21.045Z,100116.69
2022-08-14T02:49:54.997Z,100118.84
2022-08-14T02:52:55.493Z,100119.66
2022-08-14T02:55:19.913Z,100104.66
2022-08-14T02:57:58.010Z,100113.06
2022-08-14T03:00:25.765Z,100118.75
2022-08-14T03:02:58.639Z,100119.03
2022-08-14T03:05:32.822Z,100116.56
2022-08-14T03:08:21.489Z,100110.88
2022-08-14T03:10:49.075Z,100110.56
2022-08-14T03:13:19.768Z,100112.47
2022-08-14T03:15:55.467Z,100112.72
2022-08-14T03:18:31.629Z,100104.59
2022-08-14T03:21:05.424Z,100114.13
2022-08-14T03:23:37.645Z,100122.25
2022-08-14T03:26:08.583Z,100113.53
2022-08-14T03:28:36.619Z,100117.09
2022-08-14T03:31:04.315Z,100119.53
2022-08-14T03:33:38.429Z,100115.72
2022-08-14T03:37:28.589Z,100126.91
2022-08-14T03:39:12.935Z,100116.88
2022-08-14T03:41:47.696Z,100119.91
2022-08-14T03:45:19.128Z,100124.81
2022-08-14T03:47:02.946Z,100119.41
2022-08-14T03:49:30.409Z,100124.09
2022-08-14T03:52:02.898Z,100121.41
2022-08-14T03:54:31.082Z,100102.94
2022-08-14T03:57:02.759Z,100113.53
2022-08-14T03:59:30.890Z,100119.53
2022-08-14T04:02:02.182Z,100112.41
2022-08-14T04:04:32.114Z,100118.94
2022-08-14T04:07:00.828Z,100129.00
2022-08-14T04:09:28.041Z,100124.09
2022-08-14T04:11:56.163Z,100124.34
2022-08-14T04:14:24.936Z,100125.44
2022-08-14T04:16:51.737Z,100115.09
2022-08-14T04:19:22.386Z,100121.59
2022-08-14T04:22:02.104Z,100114.00
2022-08-14T04:24:38.635Z,100115.63
2022-08-14T04:27:11.837Z,100104.44
2022-08-14T04:29:42.533Z,100111.53
2022-08-14T04:32:58.578Z,100107.22
2022-08-14T04:34:57.960Z,100101.78
2022-08-14T04:37:45.515Z,100107.47
2022-08-14T04:40:40.531Z,100099.59
2022-08-14T04:43:32.483Z,100104.44
2022-08-14T04:46:11.841Z,100092.72
2022-08-14T04:48:59.940Z,100119.94
2022-08-14T04:51:28.206Z,100099.88
2022-08-14T04:53:57.338Z,100108.03
2022-08-14T04:56:31.172Z,100102.59
2022-08-14T04:59:09.892Z,100118.06
2022-08-14T05:01:41.750Z,100108.28
2022-08-14T05:04:16.380Z,100113.47
2022-08-14T05:06:49.260Z,100099.91
2022-08-14T05:09:16.516Z,100111.59
2022-08-14T05:11:44.614Z,100114.59
2022-08-14T05:14:34.456Z,100115.37
2022-08-14T05:17:01.633Z,100119.47
2022-08-14T05:19:30.023Z,100111.91
2022-08-14T05:22:16.392Z,100107.28
2022-08-14T05:24:50.274Z,100111.13
2022-08-14T05:27:23.078Z,100117.09
2022-08-14T05:29:56.879Z,100114.91
2022-08-14T05:32:27.177Z,100106.25
2022-08-14T05:34:58.309Z,100110.09
2022-08-14T05:37:28.067Z,100107.16
2022-08-14T05:39:55.212Z,100105.25
2022-08-14T05:42:26.959Z,100096.88
2022-08-14T05:44:56.617Z,100102.34
2022-08-14T05:47:28.930Z,100107.81
2022-08-14T05:50:09.650Z,100110.88
2022-08-14T05:52:44.412Z,100108.69
2022-08-14T05:55:11.731Z,100104.09
2022-08-14T05:58:01.691Z,100098.41
2022-08-14T06:00:39.638Z,100102.25
2022-08-14T06:03:09.653Z,100089.47
2022-08-14T06:05:38.440Z,100101.69
2022-08-14T06:08:31.057Z,100100.06
2022-08-14T06:11:06.107Z,100102.53
2022-08-14T06:13:44.987Z,100097.63
2022-08-14T06:16:17.556Z,100100.91
2022-08-14T06:18:52.323Z,100097.09
2022-08-14T06:21:23.187Z,100087.87
2022-08-14T06:23:51.407Z,100093.84
2022-08-14T06:26:20.740Z,100089.75
2022-08-14T06:28:52.254Z,100087.59
2022-08-14T06:31:21.247Z,100090.31
2022-08-14T06:35:09.492Z,100093.53
2022-08-14T06:36:38.014Z,100095.44
2022-08-14T06:39:08.135Z,100086.72
2022-08-14T06:41:58.005Z,100090.25
2022-08-14T06:44:32.324Z,100096.47
2022-08-14T06:47:02.634Z,100080.97
2022-08-14T06:49:30.285Z,100083.41
2022-08-14T06:51:57.479Z,100086.38
2022-08-14T06:54:31.538Z,100089.62
2022-08-14T06:56:58.655Z,100094.25
2022-08-14T06:59:25.686Z,100079.84
2022-08-14T07:02:13.546Z,100082.28
2022-08-14T07:04:59.441Z,100082.81
2022-08-14T07:07:28.759Z,100090.69
2022-08-14T07:09:55.924Z,100087.16
2022-08-14T07:12:54.538Z,100080.87
2022-08-14T07:15:11.042Z,100087.38
2022-08-14T07:17:46.788Z,100097.91
2022-08-14T07:20:31.050Z,100099.19
2022-08-14T07:23:06.919Z,100088.56
2022-08-14T07:25:38.017Z,100093.16
2022-08-14T07:28:33.101Z,100101.50
2022-08-14T07:31:04.715Z,100100.38
2022-08-14T07:33:42.027Z,100094.13
2022-08-14T07:36:27.435Z,100100.88
2022-08-14T07:39:03.244Z,100092.09
2022-08-14T07:41:33.610Z,100095.59
2022-08-14T07:44:22.590Z,100082.22
2022-08-14T07:46:50.161Z,100093.00
2022-08-14T07:49:17.957Z,100086.41
2022-08-14T07:51:45.916Z,100094.50
2022-08-14T07:54:23.480Z,100090.84
2022-08-14T07:57:12.312Z,100094.25
2022-08-14T07:59:43.758Z,100087.63
2022-08-14T08:02:19.439Z,100104.41
2022-08-14T08:04:54.571Z,100101.06
2022-08-14T08:07:29.921Z,100094.16
2022-08-14T08:10:01.254Z,100086.47
2022-08-14T08:12:30.880Z,100091.06
2022-08-14T08:15:05.791Z,100070.97
2022-08-14T08:17:42.805Z,100086.19
2022-08-14T08:20:27.108Z,100085.00
2022-08-14T08:23:05.871Z,100084.13
2022-08-14T08:25:41.160Z,100081.69
2022-08-14T08:28:22.424Z,100071.16
2022-08-14T08:30:56.487Z,100082.06
2022-08-14T08:33:26.331Z,100079.81
2022-08-14T08:36:01.509Z,100079.91
2022-08-14T08:39:17.102Z,100078.97
2022-08-14T08:41:15.601Z,100070.31
2022-08-14T08:43:46.280Z,100062.81
2022-08-14T08:46:23.847Z,100073.59
2022-08-14T08:51:25.322Z,100078.72
2022-08-14T08:54:02.519Z,100083.34
2022-08-14T08:56:48.937Z,100075.84
2022-08-14T08:59:27.193Z,100083.94
2022-08-14T09:02:00.615Z,100079.06
2022-08-14T09:04:45.736Z,100071.25
2022-08-14T09:07:27.006Z,100072.34
2022-08-14T09:09:59.172Z,100064.97
2022-08-14T09:12:32.213Z,100055.75
2022-08-14T09:15:11.403Z,100058.78
2022-08-14T09:17:41.224Z,100062.91
2022-08-14T09:20:11.648Z,100049.16
2022-08-14T09:22:42.693Z,100049.69
2022-08-14T09:25:17.335Z,100039.66
2022-08-14T09:27:47.165Z,100051.72
2022-08-14T09:30:33.126Z,100045.06
2022-08-14T09:33:11.076Z,100035.38
2022-08-14T09:35:58.164Z,100034.63
2022-08-14T09:38:43.988Z,100030.06
2022-08-14T09:42:21.621Z,100028.56
2022-08-14T09:44:46.118Z,100037.41
2022-08-14T09:47:16.975Z,100028.78
2022-08-14T09:49:47.165Z,100039.31
2022-08-14T09:52:32.688Z,100022.09
2022-08-14T09:55:02.815Z,100028.22
2022-08-14T09:57:34.083Z,100033.09
2022-08-14T10:00:30.129Z,100025.16
2022-08-14T10:03:03.576Z,100036.13
2022-08-14T10:05:35.098Z,100032.66
2022-08-14T10:08:25.474Z,100029.41
2022-08-14T10:10:57.347Z,100023.13
2022-08-14T10:13:30.505Z,100025.94
2022-08-14T10:16:25.606Z,100026.78
2022-08-14T10:19:15.887Z,100020.16
2022-08-14T10:23:11.070Z,100041.97
2022-08-14T10:24:46.236Z,100045.03
2022-08-14T10:27:23.363Z,100045.03
2022-08-14T10:29:55.789Z,100049.47
2022-08-14T10:32:28.448Z,100040.47
2022-08-14T10:35:10.933Z,100039.12
2022-08-14T10:37:52.244Z,100048.44
2022-08-14T10:40:38.408Z,100026.97
2022-08-14T10:43:23.231Z,100036.50
2022-08-14T10:46:03.266Z,100033.84
2022-08-14T10:49:03.893Z,100033.47
2022-08-14T10:51:36.355Z,100038.25
2022-08-14T10:54:16.275Z,100042.72
2022-08-14T10:57:18.794Z,100035.53
2022-08-14T10:59:49.995Z,100038.88
2022-08-14T11:02:53.908Z,100027.59
2022-08-14T11:05:23.565Z,100036.91
2022-08-14T11:07:55.436Z,100031.53
2022-08-14T11:10:39.227Z,100043.00
2022-08-14T11:13:10.646Z,100026.69
2022-08-14T11:15:37.456Z,100035.09
2022-08-14T11:18:05.339Z,100029.63
2022-08-14T11:20:33.105Z,100026.28
2022-08-14T11:23:01.466Z,100039.69
2022-08-14T11:25:43.666Z,100021.62
2022-08-14T11:28:19.288Z,100022.16
2022-08-14T11:30:54.380Z,100019.28
2022-08-14T11:33:29.154Z,100012.50
2022-08-14T11:35:59.393Z,100014.00
2022-08-14T11:38:29.201Z,100016.44
2022-08-14T11:41:00.259Z,100015.31
2022-08-14T11:43:29.602Z,100021.00
2022-08-14T11:45:57.837Z,100011.88
2022-08-14T11:49:03.083Z,100016.13
2022-08-14T11:51:26.151Z,100024.34
2022-08-14T11:54:06.367Z,100011.25
2022-08-14T11:56:43.874Z,100005.88
2022-08-14T11:59:19.777Z,100025.94
2022-08-14T12:01:54.941Z,100021.91
2022-08-14T12:04:33.423Z,100015.38
2022-08-14T12:07:01.614Z,100026.22
2022-08-14T12:09:33.939Z,100025.81
2022-08-14T12:12:02.599Z,100029.91
2022-08-14T12:14:35.463Z,100023.28
2022-08-14T12:17:09.397Z,100009.06
2022-08-14T12:19:45.537Z,100045.38
2022-08-14T12:22:12.370Z,100043.94
2022-08-14T12:24:53.005Z,100036.53
2022-08-14T12:27:25.141Z,100031.53
2022-08-14T12:29:53.979Z,100052.34
2022-08-14T12:32:21.017Z,100037.00
2022-08-14T12:34:54.956Z,100042.12
2022-08-14T12:37:30.418Z,100041.13
2022-08-14T12:40:15.651Z,100040.28
2022-08-14T12:42:53.630Z,100030.34
2022-08-14T12:45:31.502Z,100020.81
2022-08-14T12:48:21.043Z,100029.31
2022-08-14T12:50:52.249Z,100035.75
2022-08-14T12:53:21.979Z,100038.50
2022-08-14T12:56:21.338Z,100024.00
2022-08-14T12:58:55.533Z,100023.37
2022-08-14T13:01:28.831Z,100011.72
2022-08-14T13:04:14.053Z,100019.94
2022-08-14T13:06:44.772Z,100015.09
2022-08-14T13:09:17.836Z,100012.34
2022-08-14T13:11:58.444Z,100017.97
2022-08-14T13:14:38.499Z,100019.19
2022-08-14T13:17:05.586Z,100006.84
2022-08-14T13:19:35.624Z,100010.47
2022-08-14T13:22:09.858Z,100001.56
2022-08-14T13:24:48.099Z,100002.78
2022-08-14T13:27:18.697Z,100000.19
2022-08-14T13:29:47.433Z,99998.56
2022-08-14T13:32:15.324Z,100002.22
2022-08-14T13:34:45.454Z,99988.94
2022-08-14T13:37:16.969Z,99993.72
2022-08-14T13:39:56.388Z,99997.19
2022-08-14T13:42:30.850Z,99996.97
2022-08-14T13:45:02.383Z,100002.16
2022-08-14T13:47:33.120Z,100001.41
2022-08-14T13:50:02.659Z,100000.81
2022-08-14T13:52:53.393Z,100000.81
2022-08-14T13:55:25.702Z,99986.41
2022-08-14T13:58:03.301Z,99984.41
2022-08-14T14:00:53.099Z,99988.66
2022-08-14T14:03:24.291Z,99977.87
2022-08-14T14:05:54.901Z,99983.34
2022-08-14T14:08:46.813Z,99984.75
2022-08-14T14:11:15.669Z,99984.28
2022-08-14T14:13:45.693Z,99972.28
2022-08-14T14:16:15.298Z,99962.03
2022-08-14T14:18:56.009Z,99967.72
2022-08-14T14:21:26.507Z,99974.28
2022-08-14T14:23:57.010Z,99960.78
2022-08-14T14:26:24.713Z,99960.69
2022-08-14T14:28:57.031Z,99974.66
2022-08-14T14:31:29.921Z,99972.06
2022-08-14T14:34:29.167Z,99986.03
2022-08-14T14:37:04.857Z,99979.53
2022-08-14T14:39:37.618Z,99978.59
2022-08-14T14:42:06.603Z,99980.28
2022-08-14T14:44:40.290Z,99969.22
2022-08-14T14:47:15.563Z,99994.84
2022-08-14T14:49:54.906Z,99991.31
2022-08-14T14:52:26.937Z,99989.38
2022-08-14T14:54:57.170Z,99985.84
2022-08-14T14:57:35.759Z,99981.69
2022-08-14T15:00:06.942Z,99977.06
2022-08-14T15:02:39.189Z,99979.78
2022-08-14T15:05:08.078Z,99973.00
2022-08-14T15:07:36.565Z,99958.00
2022-08-14T15:10:27.637Z,99965.19
2022-08-14T15:12:57.908Z,99972.19
2022-08-14T15:15:27.670Z,99961.84
2022-08-14T15:17:55.139Z,99967.06
2022-08-14T15:20:30.669Z,99966.56
2022-08-14T15:23:12.118Z,99964.66
2022-08-14T15:25:45.318Z,99972.03
2022-08-14T15:28:21.788Z,99965.47
2022-08-14T15:30:51.192Z,99977.19
2022-08-14T15:34:01.016Z,99959.44
2022-08-14T15:36:35.262Z,99956.22
2022-08-14T15:39:03.526Z,99963.59
2022-08-14T15:41:33.708Z,99962.28
2022-08-14T15:44:25.564Z,99961.47
2022-08-14T15:46:54.282Z,99962.56
2022-08-14T15:49:24.413Z,99970.53
2022-08-14T15:51:59.304Z,99956.19
2022-08-14T15:54:31.171Z,99968.47
2022-08-14T15:57:00.770Z,99973.19
2022-08-14T15:59:48.092Z,99975.41
2022-08-14T16:02:16.722Z,99976.00
2022-08-14T16:04:46.104Z,99974.34
2022-08-14T16:07:18.788Z,99979.59
2022-08-14T16:10:01.333Z,99985.06
2022-08-14T16:12:41.639Z,99990.28
2022-08-14T16:15:16.872Z,99974.50
2022-08-14T16:17:44.901Z,99983.81
2022-08-14T16:20:12.690Z,99982.53
2022-08-14T16:23:05.601Z,99983.34
2022-08-14T16:25:42.786Z,99987.16
2022-08-14T16:28:10.405Z,99998.66
2022-08-14T16:30:54.445Z,99988.63
2022-08-14T16:33:56.405Z,99981.31
2022-08-14T16:36:26.545Z,99975.41
2022-08-14T16:39:00.252Z,99990.69
2022-08-14T16:41:27.992Z,99977.13
2022-08-14T16:44:02.433Z,99990.19
2022-08-14T16:46:42.918Z,99996.22
2022-08-14T16:49:14.549Z,99996.28
2022-08-14T16:51:43.594Z,99989.84
2022-08-14T16:54:34.430Z,99993.66
2022-08-14T16:57:34.449Z,100001.03
2022-08-14T17:00:07.470Z,100005.16
2022-08-14T17:02:46.646Z,99988.38
2022-08-14T17:05:26.940Z,99995.13
2022-08-14T17:08:28.302Z,100000.37
2022-08-14T17:10:51.748Z,100005.03
2022-08-14T17:13:58.267Z,99996.88
2022-08-14T17:16:24.260Z,99984.16
2022-08-14T17:19:03.824Z,99999.13
2022-08-14T17:21:38.131Z,100003.25
2022-08-14T17:24:55.922Z,99997.59
2022-08-14T17:27:00.130Z,100000.31
2022-08-14T17:29:33.794Z,99999.03
2022-08-14T17:32:22.384Z,100002.28
2022-08-14T17:34:55.451Z,99997.72
2022-08-14T17:37:35.560Z,100004.28
2022-08-14T17:40:16.680Z,100008.69
2022-08-14T17:42:51.354Z,100012.78
2022-08-14T17:45:41.084Z,100009.03
2022-08-14T17:49:10.630Z,100014.19
2022-08-14T17:51:14.532Z,100006.06
2022-08-14T17:53:52.591Z,100005.28
2022-08-14T17:56:21.112Z,100005.34
2022-08-14T17:58:49.579Z,100010.28
2022-08-14T18:01:23.627Z,100004.56
2022-08-14T18:03:54.058Z,100007.38
2022-08-14T18:06:40.164Z,100011.41
2022-08-14T18:09:24.698Z,100014.72
2022-08-14T18:11:58.196Z,100010.94
2022-08-14T18:14:32.528Z,100014.19
2022-08-14T18:17:16.065Z,100012.28
2022-08-14T18:19:45.018Z,100013.69
2022-08-14T18:22:31.287Z,100007.19
2022-08-14T18:25:02.387Z,100008.53
2022-08-14T18:27:38.726Z,100016.16
2022-08-14T18:30:36.482Z,100001.22
2022-08-14T18:32:59.196Z,100005.84
2022-08-14T18:35:45.915Z,100009.97
2022-08-14T18:38:52.418Z,100017.00
2022-08-14T18:41:36.258Z,100019.75
2022-08-14T18:44:10.138Z,100012.97
2022-08-14T18:47:10.244Z,100009.47
2022-08-14T18:49:55.079Z,100010.81
2022-08-14T18:52:39.224Z,99988.84
2022-08-14T18:55:18.291Z,99998.34
2022-08-14T18:57:57.642Z,100008.38
2022-08-14T19:00:32.911Z,100006.78
2022-08-14T19:03:03.840Z,100007.06
2022-08-14T19:05:47.405Z,100010.31
2022-08-14T19:08:26.293Z,100003.78
2022-08-14T19:10:57.154Z,100006.50
2022-08-14T19:13:48.438Z,99997.81
2022-08-14T19:16:26.113Z,100005.97
2022-08-14T19:19:00.443Z,100010.88
2022-08-14T19:21:32.334Z,100003.00
2022-08-14T19:24:27.139Z,99992.97
2022-08-14T19:27:19.673Z,100001.12
2022-08-14T19:29:51.241Z,99996.22
2022-08-14T19:32:36.982Z,99986.44
2022-08-14T19:35:18.343Z,99991.06
2022-08-14T19:37:57.033Z,100001.41
2022-08-14T19:40:31.630Z,100002.78
2022-08-14T19:43:02.001Z,99994.34
2022-08-14T19:45:33.795Z,100004.13
2022-08-14T19:48:02.377Z,100000.59
2022-08-14T19:50:40.286Z,99997.59
2022-08-14T19:53:16.757Z,100002.50
2022-08-14T19:55:56.946Z,100000.84
2022-08-14T19:58:54.546Z,99996.00
2022-08-14T20:01:27.060Z,100004.41
2022-08-14T20:04:45.434Z,100004.41
2022-08-14T20:07:04.115Z,100003.59
2022-08-14T20:11:04.104Z,100000.09
2022-08-14T20:12:28.865Z,99995.97
2022-08-14T20:15:15.390Z,100008.78
2022-08-14T20:17:52.958Z,100012.84
2022-08-14T20:20:32.449Z,100009.56
2022-08-14T20:23:11.260Z,100002.78
2022-08-14T20:25:45.702Z,99993.56
2022-08-14T20:41:51.224Z,100019.56
2022-08-14T20:44:42.331Z,100019.56
2022-08-14T20:47:16.217Z,100016.34
2022-08-14T20:49:43.993Z,100019.09
2022-08-14T20:52:19.939Z,100019.94
2022-08-14T20:54:51.415Z,100018.00
2022-08-14T20:57:19.384Z,100021.53
2022-08-14T20:59:57.224Z,100017.75
2022-08-14T21:02:49.682Z,100025.59
2022-08-14T21:05:20.583Z,100028.59
2022-08-14T21:07:51.433Z,100014.47
2022-08-14T21:10:35.604Z,100009.84
2022-08-14T21:13:25.395Z,100014.75
2022-08-14T21:15:57.621Z,100022.63
2022-08-14T21:18:31.722Z,100013.66
2022-08-14T21:21:06.823Z,100019.87
2022-08-14T21:23:54.492Z,100025.06
2022-08-14T21:26:51.284Z,100020.16
2022-08-14T21:29:14.274Z,100016.63
2022-08-14T21:31:42.308Z,100016.03
2022-08-14T21:34:31.703Z,100010.59
2022-08-14T21:37:09.960Z,100017.13
2022-08-14T21:39:37.743Z,100016.84
2022-08-14T21:42:06.264Z,100017.13
2022-08-14T21:44:42.840Z,100005.69
2022-08-14T21:47:13.291Z,100017.41
2022-08-14T21:49:46.379Z,100020.91
2022-08-14T21:52:50.715Z,100012.78
2022-08-14T21:55:10.451Z,100015.75
2022-08-14T21:58:46.116Z,100006.81
2022-08-14T22:00:36.544Z,100002.16
2022-08-14T22:03:10.014Z,100013.03
2022-08-14T22:05:39.698Z,100010.56
2022-08-14T22:08:12.312Z,100015.50
2022-08-14T22:10:42.493Z,100020.34
2022-08-14T22:13:12.505Z,100019.81
2022-08-14T22:15:43.915Z,100018.44
2022-08-14T22:18:20.158Z,100014.09
2022-08-14T22:20:53.355Z,100020.34
2022-08-14T22:23:23.888Z,100013.56
2022-08-14T22:25:52.297Z,100009.47
2022-08-14T22:28:27.297Z,100012.44
2022-08-14T22:31:09.946Z,100009.19
2022-08-14T22:33:39.274Z,99992.59
2022-08-14T22:36:26.488Z,100010.25
2022-08-14T22:38:54.449Z,100001.31
2022-08-14T22:41:27.706Z,99996.38
2022-08-14T22:44:03.183Z,100001.81
2022-08-14T22:46:30.727Z,100008.34
2022-08-14T22:48:57.731Z,100002.63
2022-08-14T22:51:27.704Z,99983.91
2022-08-14T22:53:56.794Z,99996.09
2022-08-14T22:56:29.284Z,100000.72
2022-08-14T22:59:03.478Z,100002.87
2022-08-14T23:02:05.299Z,99999.09
2022-08-14T23:04:53.793Z,100003.16
2022-08-14T23:07:23.623Z,99999.91
2022-08-14T23:09:57.016Z,99990.34
2022-08-14T23:12:27.835Z,100005.84
2022-08-14T23:14:56.836Z,99996.59
2022-08-14T23:17:23.957Z,99992.53
2022-08-14T23:19:56.514Z,99993.37
2022-08-14T23:22:26.210Z,99994.44
2022-08-14T23:24:57.804Z,99990.91
2022-08-14T23:27:31.633Z,99992.25
2022-08-14T23:29:58.887Z,99989.81
2022-08-14T23:32:30.197Z,99988.16
2022-08-14T23:35:00.934Z,99978.91
2022-08-14T23:37:29.107Z,99988.69
2022-08-14T23:39:56.225Z,99969.97
2022-08-14T23:42:23.386Z,99984.88
2022-08-14T23:45:08.486Z,99972.34
2022-08-14T23:47:52.151Z,99988.69
2022-08-14T23:50:34.604Z,99983.53
2022-08-14T23:53:28.324Z,99983.75
2022-08-14T23:56:06.089Z,99985.37
2022-08-14T23:58:36.853Z,99984.25
